Latest Weather Observations for Point Perpendicular

IDN60801

Issued at 2:32 pm EST Thursday 28 May 2020 (issued every 10 minutes, with the page automatically refreshed every 10 minutes)

About weather observations | Map of weather stations | Latest weather observations for NSW | Other Formats
Station Details ID: 068151 Name: POINT PERPENDICULAR AWS Lat: -35.09 Lon: 150.80 Height: 85.0 m
Data from the previous 72 hours. | See also: Recent months at Point Perpendicular
Date/Time
EST
Temp
°C
App
Temp
°C
Dew
Point
°C
Rel
Hum
%
Delta-T
°C
Wind Press
QNH
hPa
Press
MSL
hPa
Rain since
9am
mm
Dir  Spd
km/h
Gust
km/h
Spd
kts
Gust
kts
28/02:30pm 17.7 13.9 9.8 60 4.2 SSW 20 28 11 15 1019.7 1019.6 0.0
28/02:00pm 17.6 14.6 10.7 64 3.7 SSW 17 24 9 13 1019.8 1019.7 0.0
28/01:30pm 17.6 13.9 9.5 59 4.3 SSW 19 26 10 14 1019.7 1019.6 0.0
28/01:00pm 17.6 15.3 10.5 63 3.8 SSW 13 19 7 10 1019.9 1019.8 0.0
28/12:30pm 17.7 16.8 11.5 67 3.4 SSW 7 15 4 8 1020.3 1020.2 0.0
28/12:00pm 17.5 17.0 12.0 70 3.0 WSW 6 9 3 5 1020.5 1020.4 0.0
28/11:30am 17.1 16.4 11.4 69 3.1 WSW 6 11 3 6 1020.7 1020.6 0.0
28/11:00am 17.0 16.3 11.5 70 3.0 WSW 6 11 3 6 1020.9 1020.8 0.0
28/10:30am 16.6 15.7 10.7 68 3.2 SW 6 11 3 6 1021.1 1021.0 0.0
28/10:00am 16.1 15.0 10.0 67 3.2 WSW 6 7 3 4 1021.2 1021.1 0.0
28/09:30am 15.2 14.1 10.0 71 2.7 WNW 6 11 3 6 1021.3 1021.2 0.0
28/09:00am 14.5 13.6 10.5 77 2.1 WNW 6 9 3 5 1020.9 1020.8 0.2
28/08:30am 14.1 12.5 10.3 78 2.0 NW 9 13 5 7 1020.9 1020.8 0.2
28/08:00am 13.3 11.8 10.5 83 1.5 WNW 9 13 5 7 1020.6 1020.5 0.2
28/07:30am 12.5 11.6 10.6 88 1.0 WNW 6 9 3 5 1020.4 1020.3 0.2
28/07:00am 11.8 10.4 9.7 87 1.1 WNW 7 9 4 5 1020.0 1019.9 0.2
28/06:30am 12.3 11.1 10.4 88 1.0 WNW 7 11 4 6 1019.8 1019.7 0.2
28/06:00am 12.4 10.8 10.3 87 1.1 WNW 9 11 5 6 1019.4 1019.3 0.2
28/05:30am 12.7 11.6 10.6 87 1.1 WNW 7 9 4 5 1019.4 1019.3 0.2
28/05:00am 12.2 10.4 10.8 91 0.7 NW 11 15 6 8 1019.4 1019.3 0.2
28/04:30am 12.3 10.5 10.7 90 0.8 WNW 11 17 6 9 1019.4 1019.3 0.2
28/04:00am 11.7 9.4 10.3 91 0.7 NW 13 17 7 9 1019.4 1019.3 0.2
28/03:30am 12.0 10.1 10.4 90 0.8 NNW 11 13 6 7 1019.3 1019.2 0.2
28/03:00am 12.3 10.8 10.4 88 1.0 NW 9 13 5 7 1019.4 1019.3 0.2
28/02:30am 12.7 11.6 10.6 87 1.1 NW 7 11 4 6 1019.4 1019.3 0.2
28/02:00am 12.5 11.7 11.1 91 0.7 NW 6 9 3 5 1019.6 1019.5 0.2
28/01:30am 12.7 12.1 11.6 93 0.6 WNW 6 6 3 3 1019.8 1019.7 0.2
28/01:00am 13.0 11.6 12.1 94 0.5 NW 11 11 6 6 1019.7 1019.6 0.2
28/12:30am 13.3 11.7 11.7 90 0.9 NNW 11 11 6 6 1019.8 1019.7 0.2
28/12:00am 13.1 11.9 11.7 91 0.7 N 9 11 5 6 1019.9 1019.8 0.2
 
Date/Time
EST
Temp
°C
App
Temp
°C
Dew
Point
°C
Rel
Hum
%
Delta-T
°C
Wind Press
QNH
hPa
Press
MSL
hPa
Rain since
9am
mm
Dir  Spd
km/h
Gust
km/h
Spd
kts
Gust
kts
27/11:30pm 12.7 11.9 11.6 93 0.6 N 7 9 4 5 1020.1 1020.0 0.2
27/11:00pm 12.9 12.2 12.0 94 0.5 NW 7 9 4 5 1020.4 1020.3 0.2
27/10:30pm 13.4 12.4 12.3 93 0.6 NW 9 11 5 6 1020.7 1020.6 0.2
27/10:00pm 13.7 12.5 12.9 95 0.4 NW 11 11 6 6 1020.9 1020.8 0.2
27/09:30pm 14.0 13.7 12.7 92 0.7 NW 6 7 3 4 1020.7 1020.6 0.2
27/09:00pm 13.4 12.6 11.6 89 1.0 NW 7 9 4 5 1020.8 1020.7 0.2
27/08:30pm 13.7 12.8 10.7 82 1.6 N 6 6 3 3 1020.7 1020.6 0.2
27/08:00pm 14.2 14.2 11.0 81 1.7 N 2 2 1 1 1020.7 1020.6 0.2
27/07:30pm 14.4 14.4 11.0 80 1.8 N 2 4 1 2 1020.7 1020.6 0.2
27/07:00pm 14.9 14.5 11.1 78 2.0 NE 4 4 2 2 1020.6 1020.5 0.2
27/06:30pm 15.6 15.6 11.2 75 2.4 ESE 2 4 1 2 1020.5 1020.4 0.2
27/06:00pm 15.7 14.8 11.5 76 2.3 SE 7 9 4 5 1020.3 1020.2 0.2
27/05:30pm 15.6 15.1 12.0 79 2.0 SE 6 6 3 3 1020.3 1020.2 0.2
27/05:00pm 15.5 15.3 11.7 78 2.1 SSE 4 6 2 3 1020.2 1020.1 0.2
27/04:30pm 15.7 15.9 11.7 77 2.2 SE 2 6 1 3 1020.2 1020.1 0.2
27/04:00pm 16.1 15.6 11.9 76 2.3 SSE 6 7 3 4 1020.0 1019.9 0.2
27/03:30pm 16.1 15.5 12.3 78 2.1 SSE 7 11 4 6 1020.0 1019.9 0.2
27/03:00pm 17.1 16.7 12.4 74 2.6 SSE 6 11 3 6 1020.1 1020.0 0.2
27/02:30pm 15.9 14.8 12.1 78 2.1 SSE 9 13 5 7 1020.3 1020.2 0.2
27/02:00pm 17.1 16.0 11.8 71 2.9 S 9 15 5 8 1020.6 1020.5 0.2
27/01:30pm 17.1 16.1 12.2 73 2.7 SSW 9 15 5 8 1020.8 1020.7 0.2
27/01:00pm 16.2 15.6 12.2 77 2.2 WSW 7 15 4 8 1021.0 1020.9 0.2
27/12:30pm 15.8 14.8 12.2 79 2.0 SW 9 13 5 7 1021.4 1021.3 0.2
27/12:00pm 16.1 14.9 11.7 75 2.4 SSW 9 17 5 9 1021.7 1021.6 0.2
27/11:30am 16.7 15.8 11.4 71 2.9 SW 7 17 4 9 1022.1 1022.0 0.0
27/11:00am 16.2 15.6 12.4 78 2.1 WSW 7 13 4 7 1022.6 1022.6 0.0
27/10:30am 15.8 15.2 12.4 80 1.9 WSW 7 13 4 7 1022.9 1022.9 0.0
27/10:00am 15.3 14.7 12.2 82 1.7 WSW 7 11 4 6 1023.1 1023.1 0.0
27/09:30am 15.4 14.5 12.5 83 1.6 WSW 9 15 5 8 1023.1 1023.1 0.0
27/09:00am 15.0 14.1 12.7 86 1.3 WSW 9 15 5 8 1023.3 1023.3 5.0
27/08:30am 14.2 13.6 12.2 88 1.1 SW 7 13 4 7 1023.1 1023.1 5.0
27/08:00am 13.7 13.0 12.1 90 0.9 WSW 7 13 4 7 1023.1 1023.1 5.0
27/07:30am 13.5 12.4 12.1 91 0.8 WSW 9 13 5 7 1023.1 1023.1 5.0
27/07:00am 13.4 11.9 12.0 91 0.8 WSW 11 17 6 9 1023.1 1023.1 5.0
27/06:30am 13.4 12.3 12.0 91 0.8 WSW 9 15 5 8 1022.8 1022.8 5.0
27/06:00am 13.9 13.9 12.3 90 0.9 W 4 11 2 6 1022.6 1022.6 5.0
27/05:30am 13.8 13.3 12.2 90 0.9 WSW 6 9 3 5 1022.3 1022.3 5.0
27/05:00am 13.9 12.0 11.9 88 1.1 SSW 13 20 7 11 1022.3 1022.3 5.0
27/04:30am 14.4 12.3 12.4 88 1.1 SSW 15 24 8 13 1022.1 1022.0 5.0
27/04:00am 14.4 12.7 12.3 87 1.1 SSW 13 19 7 10 1022.4 1022.4 4.4
27/03:30am 14.3 13.3 12.3 88 1.1 WSW 9 17 5 9 1022.9 1022.9 4.2
27/03:00am 14.4 12.7 12.4 88 1.1 SW 13 22 7 12 1023.1 1023.1 4.2
27/02:30am 14.7 13.5 12.7 88 1.1 SW 11 17 6 9 1022.8 1022.8 4.2
27/02:00am 14.6 12.9 12.5 87 1.1 SW 13 20 7 11 1023.1 1023.1 4.2
27/01:30am 14.8 12.4 12.7 87 1.2 SW 17 24 9 13 1023.0 1023.0 4.2
27/01:00am 15.3 13.5 12.2 82 1.7 SW 13 24 7 13 1023.2 1023.2 4.2
27/12:30am 15.0 13.4 11.4 79 1.9 SW 11 19 6 10 1023.8 1023.7 4.2
27/12:00am 16.0 14.4 10.1 68 3.1 S 9 17 5 9 1023.9 1023.8 4.2
 
Date/Time
EST
Temp
°C
App
Temp
°C
Dew
Point
°C
Rel
Hum
%
Delta-T
°C
Wind Press
QNH
hPa
Press
MSL
hPa
Rain since
9am
mm
Dir  Spd
km/h
Gust
km/h
Spd
kts
Gust
kts
26/11:30pm 15.5 13.7 12.1 80 1.9 S 13 20 7 11 1024.1 1024.0 4.2
26/11:00pm 15.4 13.0 12.5 83 1.6 S 17 26 9 14 1024.0 1023.9 4.2
26/10:30pm 15.4 12.3 12.3 82 1.7 S 20 28 11 15 1023.6 1023.5 4.2
26/10:00pm 15.7 13.6 11.3 75 2.4 SSE 13 20 7 11 1023.8 1023.7 4.2
26/09:30pm 15.3 12.2 12.2 82 1.7 S 20 33 11 18 1023.9 1023.8 4.2
26/09:00pm 14.8 13.2 11.6 81 1.7 SSW 11 15 6 8 1024.2 1024.1 4.2
26/08:30pm 15.9 12.2 10.0 68 3.1 S 20 28 11 15 1024.1 1024.0 3.2
26/08:00pm 15.5 13.8 12.3 81 1.7 SSW 13 22 7 12 1024.0 1023.9 3.2
26/07:30pm 15.5 12.8 11.7 78 2.1 SSW 17 30 9 16 1023.8 1023.7 3.2
26/07:00pm 16.0 12.4 10.7 71 2.8 S 20 32 11 17 1023.8 1023.7 3.2
26/06:30pm 15.9 12.3 10.4 70 2.9 S 20 33 11 18 1023.1 1023.1 3.2
26/06:00pm 16.5 14.1 11.4 72 2.8 S 15 24 8 13 1023.0 1023.0 3.2
26/05:30pm 16.6 13.5 11.7 73 2.7 S 19 30 10 16 1022.9 1022.9 3.2
26/05:00pm 16.9 14.1 10.1 64 3.6 SSE 15 22 8 12 1022.9 1022.9 3.2
26/04:30pm 16.7 14.0 11.6 72 2.8 SSE 17 26 9 14 1022.5 1022.5 3.2
26/04:00pm 17.2 14.0 9.9 62 3.8 SSE 17 26 9 14 1022.4 1022.4 3.2
26/03:30pm 17.5 14.3 9.9 61 4.0 SSE 17 28 9 15 1022.2 1022.2 3.2
26/03:00pm 16.9 14.5 12.6 76 2.4 SSW 17 26 9 14 1022.3 1022.3 3.2
26/02:30pm 16.4 13.1 11.6 73 2.6 S 20 32 11 17 1022.5 1022.5 3.2
26/02:00pm 16.0 13.0 11.8 76 2.3 S 19 32 10 17 1022.5 1022.5 3.2
26/01:30pm 15.8 12.3 12.2 79 2.0 S 22 37 12 20 1022.4 1022.4 3.2
26/01:00pm 17.3 14.1 12.0 71 2.9 S 20 37 11 20 1022.8 1022.8 2.2
26/12:30pm 17.1 13.4 10.0 63 3.8 SSE 20 32 11 17 1023.1 1023.1 2.2
26/12:00pm 16.2 13.1 11.6 74 2.5 S 19 28 10 15 1023.7 1023.6 2.2
26/11:30am 15.6 13.9 12.4 81 1.8 SSW 13 28 7 15 1024.0 1023.9 2.2
26/11:00am 16.7 13.5 11.8 73 2.7 SE 20 35 11 19 1023.7 1023.6 1.4
26/10:30am 17.0 13.8 11.9 72 2.8 SSE 20 33 11 18 1023.9 1023.8 1.4
26/10:00am 16.4 13.4 12.0 75 2.4 SSE 19 32 10 17 1024.0 1023.9 1.4
26/09:30am 16.4 13.8 13.7 84 1.5 SE 20 33 11 18 1024.1 1024.0 1.4
26/09:11am 15.0 10.3 12.0 82 1.6 SE 28 48 15 26 1023.6 1023.5 1.2
26/09:00am 16.8 13.6 13.1 79 2.1 SE 22 35 12 19 1023.4 1023.4 13.4
26/08:30am 16.3 14.2 15.2 93 0.6 SE 20 30 11 16 1023.0 1023.0 13.4
26/08:00am 14.1 11.5 13.3 95 0.4 SW 19 35 10 19 1023.3 1023.3 12.8
26/07:30am 14.4 11.0 13.6 95 0.4 SSW 24 43 13 23 1022.6 1022.6 12.4
26/07:00am 15.1 10.8 14.5 96 0.3 SW 30 44 16 24 1022.0 1021.9 12.4
26/06:37am 14.3 10.2 13.7 96 0.3 SW 28 46 15 25 1022.1 1022.0 8.2
26/06:30am 14.4 10.3 13.8 96 0.3 SW 28 43 15 23 1021.8 1021.7 7.8
26/06:09am 13.9 9.6 13.1 95 0.4 SSW 28 46 15 25 1021.7 1021.6 5.6
26/06:00am 13.9 9.2 13.1 95 0.4 SW 30 46 16 25 1021.4 1021.3 5.2
26/05:58am 13.9 9.6 13.1 95 0.4 SW 28 46 15 25 1021.5 1021.4 5.2
26/05:30am 12.9 9.0 12.0 94 0.5 SW 24 41 13 22 1022.4 1022.4 3.4
26/05:02am 12.7 7.2 11.8 94 0.5 SW 32 50 17 27 1021.3 1021.2 3.4
26/05:00am 13.0 7.4 12.1 94 0.5 SW 33 50 18 27 1021.0 1020.9 3.4
26/04:30am 13.3 8.4 12.5 95 0.4 SW 30 44 16 24 1021.4 1021.3 3.0
26/04:15am 13.2 8.3 12.4 95 0.4 SW 30 48 16 26 1021.5 1021.4 3.0
26/04:00am 13.3 8.4 12.5 95 0.4 SW 30 46 16 25 1021.7 1021.6 2.8
26/03:31am 13.9 9.5 13.0 94 0.5 SW 28 46 15 25 1020.7 1020.6 2.4
26/03:30am 13.8 9.8 12.9 94 0.5 SW 26 44 14 24 1021.3 1021.2 2.4
26/03:03am 13.1 7.4 11.8 92 0.7 SW 33 54 18 29 1021.9 1021.8 1.6
26/03:00am 13.4 7.4 12.1 92 0.7 SW 35 50 19 27 1021.6 1021.5 1.4
26/02:30am 14.1 7.5 12.7 91 0.8 SW 39 61 21 33 1021.0 1020.9 1.4
26/02:03am 14.4 7.9 12.8 90 0.9 SSW 39 57 21 31 1021.1 1021.0 1.4
26/02:00am 14.4 8.2 12.8 90 0.9 SSW 37 54 20 29 1021.0 1020.9 1.4
26/01:30am 14.4 8.2 12.8 90 0.9 SSW 37 57 20 31 1020.7 1020.6 1.4
26/01:00am 14.6 8.2 13.1 91 0.8 SSW 39 57 21 31 1021.0 1020.9 1.4
26/12:30am 13.9 7.2 12.3 90 0.9 SSW 39 59 21 32 1021.1 1021.0 1.4
26/12:00am 14.1 7.8 12.3 89 1.0 SSW 37 56 20 30 1020.8 1020.7 1.4
 
Date/Time
EST
Temp
°C
App
Temp
°C
Dew
Point
°C
Rel
Hum
%
Delta-T
°C
Wind Press
QNH
hPa
Press
MSL
hPa
Rain since
9am
mm
Dir  Spd
km/h
Gust
km/h
Spd
kts
Gust
kts
25/11:34pm 14.0 7.0 12.6 91 0.8 SSW 41 59 22 32 1021.0 1020.9 1.4
25/11:30pm 13.7 6.3 12.3 91 0.8 SSW 43 59 23 32 1020.8 1020.7 1.4
25/11:00pm 14.3 7.2 12.3 88 1.1 SSW 41 63 22 34 1020.7 1020.6 1.4
25/10:30pm 15.2 8.5 11.0 76 2.2 SSW 37 57 20 31 1020.4 1020.3 1.4
25/10:00pm 14.7 8.2 11.8 83 1.6 SSW 37 59 20 32 1020.5 1020.4 1.4
25/09:30pm 15.4 8.5 11.6 78 2.1 SSW 39 59 21 32 1020.1 1020.0 1.4
25/09:00pm 15.1 8.3 12.1 82 1.6 SSW 39 61 21 33 1020.3 1020.2 1.4
25/08:31pm 14.9 7.7 11.9 82 1.6 SSW 41 63 22 34 1019.9 1019.8 1.4
25/08:30pm 14.8 7.2 11.8 82 1.6 SSW 43 59 23 32 1019.9 1019.8 1.4
25/08:00pm 14.7 7.2 12.2 85 1.4 SSW 43 63 23 34 1019.5 1019.4 1.4
25/07:30pm 15.1 7.7 12.4 84 1.5 SSW 43 63 23 34 1019.2 1019.1 1.4
25/07:00pm 14.5 7.0 12.0 85 1.4 SSW 43 63 23 34 1018.7 1018.6 1.4
25/06:30pm 14.4 7.3 12.3 87 1.1 SSW 41 69 22 37 1018.6 1018.5 1.4
25/06:00pm 14.3 6.8 12.0 86 1.2 SSW 43 65 23 35 1018.3 1018.2 1.4
25/05:30pm 14.4 6.8 12.3 87 1.1 SSW 44 65 24 35 1018.1 1018.0 1.4
25/05:00pm 14.6 6.2 12.3 86 1.3 SSW 48 74 26 40 1017.9 1017.8 1.4
25/04:30pm 14.6 6.6 12.3 86 1.3 SSW 46 67 25 36 1017.4 1017.3 1.4
25/04:00pm 14.4 5.7 12.6 89 1.0 SSW 50 70 27 38 1017.5 1017.4 1.4
25/03:31pm 13.9 6.4 12.8 93 0.6 SSW 44 63 24 34 1017.2 1017.1 1.4
25/03:30pm 14.0 6.2 13.1 94 0.5 SSW 46 63 25 34 1017.3 1017.2 1.4
25/03:00pm 14.2 6.5 13.2 94 0.6 SSW 46 67 25 36 1017.3 1017.2 1.2

Other formats

Comma delimited format used in spreadsheet applications
http://www.bom.gov.au/fwo/IDN60801/IDN60801.95940.axf

JavaScript Object Notation format (JSON) in row-major order
http://www.bom.gov.au/fwo/IDN60801/IDN60801.95940.json

Data quality

Most of these data are generated automatically and are frequently updated. Quality checks on data are not normally performed. It is possible for incorrect values to appear. Refer to information at About Latest Weather Observations and please check the disclaimer before using these data.